Winter Harbour, Canada
Current Conditions -  °F | °C
As of 11:00 PM on Saturday 25 Oct 2014 (Local Time) from CYZT Reporting Station
Few Clouds Few Clouds  
Wind Chill: 41°   Ceiling: Unl
Heat Index: 46°   Visibility: 15mi
Dew Point: 45°   Wind: 10mph
Humidity: 93%   Direction: 220°SW
Pressure: 29.56"   Gusts: NA
Location:  50.52°N, 128.03°W
Report Text: CYZT 260600Z 22009KT 15SM FEW150 FEW210 08/07 A2956 RMK AC1CI1 SLP009
Loading
Personal Weather Stations






























Interactive Weather Map
Tropical Storm Tracking
New forecast layout! Learn more

10-Day Weather Forecast

Advertisements
Track Severe Weather on mobile